sensor_id;sensor_type;location;lat;lon;timestamp;temperature;humidity
19330;DHT22;9799;48.214;16.388;2023-08-31T00:00:47;18.70;99.90
19330;DHT22;9799;48.214;16.388;2023-08-31T00:04:11;18.70;99.90
19330;DHT22;9799;48.214;16.388;2023-08-31T00:07:36;18.60;99.90
19330;DHT22;9799;48.214;16.388;2023-08-31T00:10:57;18.60;99.90
19330;DHT22;9799;48.214;16.388;2023-08-31T00:14:20;18.60;99.90
19330;DHT22;9799;48.214;16.388;2023-08-31T00:17:41;18.60;99.90
19330;DHT22;9799;48.214;16.388;2023-08-31T00:21:04;18.60;99.90
19330;DHT22;9799;48.214;16.388;2023-08-31T00:24:26;18.60;99.90
19330;DHT22;9799;48.214;16.388;2023-08-31T00:27:51;18.60;99.90
19330;DHT22;9799;48.214;16.388;2023-08-31T00:31:13;18.60;99.90
19330;DHT22;9799;48.214;16.388;2023-08-31T00:34:34;18.50;99.90
19330;DHT22;9799;48.214;16.388;2023-08-31T00:37:56;18.50;99.90
19330;DHT22;9799;48.214;16.388;2023-08-31T00:41:21;18.40;99.90
19330;DHT22;9799;48.214;16.388;2023-08-31T00:44:42;18.50;99.90
19330;DHT22;9799;48.214;16.388;2023-08-31T00:48:06;18.50;99.90
19330;DHT22;9799;48.214;16.388;2023-08-31T00:51:28;18.50;99.90
19330;DHT22;9799;48.214;16.388;2023-08-31T00:54:50;18.40;99.90
19330;DHT22;9799;48.214;16.388;2023-08-31T00:58:14;18.40;99.90
19330;DHT22;9799;48.214;16.388;2023-08-31T01:01:39;18.40;99.90
19330;DHT22;9799;48.214;16.388;2023-08-31T01:05:08;18.40;99.90
19330;DHT22;9799;48.214;16.388;2023-08-31T01:08:33;18.30;99.90
19330;DHT22;9799;48.214;16.388;2023-08-31T01:12:02;18.40;99.90
19330;DHT22;9799;48.214;16.388;2023-08-31T01:15:26;18.30;99.90
19330;DHT22;9799;48.214;16.388;2023-08-31T01:18:49;18.40;99.90
19330;DHT22;9799;48.214;16.388;2023-08-31T01:22:14;18.40;99.90
19330;DHT22;9799;48.214;16.388;2023-08-31T01:25:38;18.30;99.90
19330;DHT22;9799;48.214;16.388;2023-08-31T01:29:00;18.30;99.90
19330;DHT22;9799;48.214;16.388;2023-08-31T01:32:22;18.20;99.90
19330;DHT22;9799;48.214;16.388;2023-08-31T01:35:47;18.30;99.90
19330;DHT22;9799;48.214;16.388;2023-08-31T01:39:13;18.30;99.90
19330;DHT22;9799;48.214;16.388;2023-08-31T01:42:36;18.20;99.90
19330;DHT22;9799;48.214;16.388;2023-08-31T01:45:58;18.20;99.90
19330;DHT22;9799;48.214;16.388;2023-08-31T01:49:20;18.10;99.90
19330;DHT22;9799;48.214;16.388;2023-08-31T01:52:41;18.00;99.90
19330;DHT22;9799;48.214;16.388;2023-08-31T01:56:03;18.00;99.90
19330;DHT22;9799;48.214;16.388;2023-08-31T01:59:26;17.80;99.90
19330;DHT22;9799;48.214;16.388;2023-08-31T02:02:48;17.80;99.90
19330;DHT22;9799;48.214;16.388;2023-08-31T02:06:09;17.80;99.90
19330;DHT22;9799;48.214;16.388;2023-08-31T02:09:30;17.70;99.90
19330;DHT22;9799;48.214;16.388;2023-08-31T02:12:51;17.70;99.90
19330;DHT22;9799;48.214;16.388;2023-08-31T02:16:14;17.80;99.90
19330;DHT22;9799;48.214;16.388;2023-08-31T02:19:35;17.90;99.90
19330;DHT22;9799;48.214;16.388;2023-08-31T02:22:56;17.80;99.90
19330;DHT22;9799;48.214;16.388;2023-08-31T02:26:17;17.80;99.90
19330;DHT22;9799;48.214;16.388;2023-08-31T02:29:39;17.80;99.90
19330;DHT22;9799;48.214;16.388;2023-08-31T02:33:01;17.70;99.90
19330;DHT22;9799;48.214;16.388;2023-08-31T02:36:22;17.70;99.90
19330;DHT22;9799;48.214;16.388;2023-08-31T02:39:43;17.60;99.90
19330;DHT22;9799;48.214;16.388;2023-08-31T02:43:05;17.60;99.90
19330;DHT22;9799;48.214;16.388;2023-08-31T02:46:26;17.70;99.90
19330;DHT22;9799;48.214;16.388;2023-08-31T02:49:49;17.70;99.90
19330;DHT22;9799;48.214;16.388;2023-08-31T02:53:10;17.80;99.90
19330;DHT22;9799;48.214;16.388;2023-08-31T02:56:31;17.90;99.90
19330;DHT22;9799;48.214;16.388;2023-08-31T02:59:52;17.80;99.90
19330;DHT22;9799;48.214;16.388;2023-08-31T03:03:14;17.80;99.90
19330;DHT22;9799;48.214;16.388;2023-08-31T03:06:36;17.80;99.90
19330;DHT22;9799;48.214;16.388;2023-08-31T03:09:58;17.80;99.90
19330;DHT22;9799;48.214;16.388;2023-08-31T03:13:19;17.80;99.90
19330;DHT22;9799;48.214;16.388;2023-08-31T03:16:40;17.80;99.90
19330;DHT22;9799;48.214;16.388;2023-08-31T03:20:01;17.90;99.90
19330;DHT22;9799;48.214;16.388;2023-08-31T03:23:26;17.90;99.90
19330;DHT22;9799;48.214;16.388;2023-08-31T03:26:47;17.90;99.90
19330;DHT22;9799;48.214;16.388;2023-08-31T03:30:09;18.00;99.90
19330;DHT22;9799;48.214;16.388;2023-08-31T03:33:30;17.90;99.90
19330;DHT22;9799;48.214;16.388;2023-08-31T03:36:51;17.80;99.90
19330;DHT22;9799;48.214;16.388;2023-08-31T03:40:14;18.00;99.90
19330;DHT22;9799;48.214;16.388;2023-08-31T03:43:35;17.80;99.90
19330;DHT22;9799;48.214;16.388;2023-08-31T03:46:56;17.80;99.90
19330;DHT22;9799;48.214;16.388;2023-08-31T03:50:18;18.00;99.90
19330;DHT22;9799;48.214;16.388;2023-08-31T03:53:39;18.00;99.90
19330;DHT22;9799;48.214;16.388;2023-08-31T03:57:02;17.90;99.90
19330;DHT22;9799;48.214;16.388;2023-08-31T04:00:23;17.90;99.90
19330;DHT22;9799;48.214;16.388;2023-08-31T04:03:44;17.90;99.90
19330;DHT22;9799;48.214;16.388;2023-08-31T04:07:06;17.90;99.90
19330;DHT22;9799;48.214;16.388;2023-08-31T04:10:27;17.90;99.90
19330;DHT22;9799;48.214;16.388;2023-08-31T04:13:50;17.90;99.90
19330;DHT22;9799;48.214;16.388;2023-08-31T04:17:12;17.90;99.90
19330;DHT22;9799;48.214;16.388;2023-08-31T04:20:33;17.90;99.90
19330;DHT22;9799;48.214;16.388;2023-08-31T04:23:54;17.90;99.90
19330;DHT22;9799;48.214;16.388;2023-08-31T04:27:15;17.90;99.90
19330;DHT22;9799;48.214;16.388;2023-08-31T04:30:39;17.80;99.90
19330;DHT22;9799;48.214;16.388;2023-08-31T04:34:00;17.90;99.90
19330;DHT22;9799;48.214;16.388;2023-08-31T04:37:22;17.80;99.90
19330;DHT22;9799;48.214;16.388;2023-08-31T04:40:43;17.80;99.90
19330;DHT22;9799;48.214;16.388;2023-08-31T04:44:04;17.80;99.90
19330;DHT22;9799;48.214;16.388;2023-08-31T04:47:27;17.80;99.90
19330;DHT22;9799;48.214;16.388;2023-08-31T04:50:48;17.90;99.90
19330;DHT22;9799;48.214;16.388;2023-08-31T04:54:09;17.90;99.90
19330;DHT22;9799;48.214;16.388;2023-08-31T04:57:30;17.90;99.90
19330;DHT22;9799;48.214;16.388;2023-08-31T05:00:52;17.90;99.90
19330;DHT22;9799;48.214;16.388;2023-08-31T05:04:14;17.90;99.90
19330;DHT22;9799;48.214;16.388;2023-08-31T05:07:35;17.90;99.90
19330;DHT22;9799;48.214;16.388;2023-08-31T05:10:57;17.90;99.90
19330;DHT22;9799;48.214;16.388;2023-08-31T05:14:18;18.00;99.90
19330;DHT22;9799;48.214;16.388;2023-08-31T05:17:39;18.00;99.90
19330;DHT22;9799;48.214;16.388;2023-08-31T05:21:03;18.00;99.90
19330;DHT22;9799;48.214;16.388;2023-08-31T05:24:24;18.00;99.90
19330;DHT22;9799;48.214;16.388;2023-08-31T05:27:45;18.00;99.90
19330;DHT22;9799;48.214;16.388;2023-08-31T05:31:06;18.10;99.90
19330;DHT22;9799;48.214;16.388;2023-08-31T05:34:28;18.10;99.90
19330;DHT22;9799;48.214;16.388;2023-08-31T05:37:51;18.10;99.90
19330;DHT22;9799;48.214;16.388;2023-08-31T05:41:12;18.20;99.90
19330;DHT22;9799;48.214;16.388;2023-08-31T05:44:33;18.30;99.90
19330;DHT22;9799;48.214;16.388;2023-08-31T05:47:55;18.30;99.90
19330;DHT22;9799;48.214;16.388;2023-08-31T05:51:16;18.40;99.90
19330;DHT22;9799;48.214;16.388;2023-08-31T05:54:39;18.50;99.90
19330;DHT22;9799;48.214;16.388;2023-08-31T05:58:00;18.60;99.90
19330;DHT22;9799;48.214;16.388;2023-08-31T06:01:22;18.80;99.90
19330;DHT22;9799;48.214;16.388;2023-08-31T06:04:43;18.80;99.90
19330;DHT22;9799;48.214;16.388;2023-08-31T06:08:05;18.90;99.90
19330;DHT22;9799;48.214;16.388;2023-08-31T06:11:27;18.90;99.90
19330;DHT22;9799;48.214;16.388;2023-08-31T06:14:49;18.80;99.90
19330;DHT22;9799;48.214;16.388;2023-08-31T06:18:10;18.90;99.90
19330;DHT22;9799;48.214;16.388;2023-08-31T06:21:31;19.00;99.90
19330;DHT22;9799;48.214;16.388;2023-08-31T06:24:52;19.00;99.90
19330;DHT22;9799;48.214;16.388;2023-08-31T06:28:15;19.20;99.90
19330;DHT22;9799;48.214;16.388;2023-08-31T06:31:36;19.10;99.90
19330;DHT22;9799;48.214;16.388;2023-08-31T06:34:58;19.10;99.90
19330;DHT22;9799;48.214;16.388;2023-08-31T06:38:19;19.20;99.90
19330;DHT22;9799;48.214;16.388;2023-08-31T06:41:40;19.30;99.90
19330;DHT22;9799;48.214;16.388;2023-08-31T06:45:03;19.30;99.90
19330;DHT22;9799;48.214;16.388;2023-08-31T06:48:25;19.40;99.90
19330;DHT22;9799;48.214;16.388;2023-08-31T06:51:46;19.40;99.90
19330;DHT22;9799;48.214;16.388;2023-08-31T06:55:08;19.30;99.90
19330;DHT22;9799;48.214;16.388;2023-08-31T06:58:30;19.40;99.90
19330;DHT22;9799;48.214;16.388;2023-08-31T07:01:53;19.50;99.90
19330;DHT22;9799;48.214;16.388;2023-08-31T07:05:14;19.60;99.90
19330;DHT22;9799;48.214;16.388;2023-08-31T07:08:35;19.60;99.90
19330;DHT22;9799;48.214;16.388;2023-08-31T07:11:56;19.80;99.90
19330;DHT22;9799;48.214;16.388;2023-08-31T07:15:18;19.90;99.90
19330;DHT22;9799;48.214;16.388;2023-08-31T07:18:41;20.00;99.90
19330;DHT22;9799;48.214;16.388;2023-08-31T07:22:02;20.10;99.90
19330;DHT22;9799;48.214;16.388;2023-08-31T07:25:24;20.10;99.90
19330;DHT22;9799;48.214;16.388;2023-08-31T07:28:47;20.10;99.90
19330;DHT22;9799;48.214;16.388;2023-08-31T07:32:08;19.90;99.90
19330;DHT22;9799;48.214;16.388;2023-08-31T07:35:31;19.90;99.90
19330;DHT22;9799;48.214;16.388;2023-08-31T07:38:52;20.00;99.90
19330;DHT22;9799;48.214;16.388;2023-08-31T07:42:14;20.30;99.90
19330;DHT22;9799;48.214;16.388;2023-08-31T07:45:35;20.40;99.90
19330;DHT22;9799;48.214;16.388;2023-08-31T07:48:56;20.50;99.90
19330;DHT22;9799;48.214;16.388;2023-08-31T07:52:19;20.60;99.90
19330;DHT22;9799;48.214;16.388;2023-08-31T07:55:40;20.60;99.90
19330;DHT22;9799;48.214;16.388;2023-08-31T07:59:01;20.60;99.90
19330;DHT22;9799;48.214;16.388;2023-08-31T08:02:22;20.80;99.90
19330;DHT22;9799;48.214;16.388;2023-08-31T08:05:43;20.80;99.90
19330;DHT22;9799;48.214;16.388;2023-08-31T08:09:06;20.90;99.90
19330;DHT22;9799;48.214;16.388;2023-08-31T08:12:27;20.90;99.90
19330;DHT22;9799;48.214;16.388;2023-08-31T08:15:49;20.90;99.90
19330;DHT22;9799;48.214;16.388;2023-08-31T08:19:10;21.00;99.90
19330;DHT22;9799;48.214;16.388;2023-08-31T08:22:31;21.10;99.90
19330;DHT22;9799;48.214;16.388;2023-08-31T08:25:54;21.20;99.90
19330;DHT22;9799;48.214;16.388;2023-08-31T08:29:15;21.40;99.90
19330;DHT22;9799;48.214;16.388;2023-08-31T08:32:36;21.50;99.90
19330;DHT22;9799;48.214;16.388;2023-08-31T08:35:58;21.50;99.90
19330;DHT22;9799;48.214;16.388;2023-08-31T08:39:19;21.60;99.90
19330;DHT22;9799;48.214;16.388;2023-08-31T08:42:43;21.90;99.90
19330;DHT22;9799;48.214;16.388;2023-08-31T08:46:05;21.90;99.90
19330;DHT22;9799;48.214;16.388;2023-08-31T08:49:29;21.90;99.90
19330;DHT22;9799;48.214;16.388;2023-08-31T08:52:51;21.90;99.90
19330;DHT22;9799;48.214;16.388;2023-08-31T08:56:14;21.90;99.90
19330;DHT22;9799;48.214;16.388;2023-08-31T08:59:36;22.00;99.90
19330;DHT22;9799;48.214;16.388;2023-08-31T09:02:58;22.10;99.90
19330;DHT22;9799;48.214;16.388;2023-08-31T09:06:20;22.10;99.90
19330;DHT22;9799;48.214;16.388;2023-08-31T09:09:52;22.00;99.90
19330;DHT22;9799;48.214;16.388;2023-08-31T09:13:16;22.00;99.90
19330;DHT22;9799;48.214;16.388;2023-08-31T09:16:46;22.20;99.90
19330;DHT22;9799;48.214;16.388;2023-08-31T09:20:09;22.00;99.90
19330;DHT22;9799;48.214;16.388;2023-08-31T09:23:30;22.20;99.90
19330;DHT22;9799;48.214;16.388;2023-08-31T09:26:53;22.40;99.90
19330;DHT22;9799;48.214;16.388;2023-08-31T09:30:15;22.60;99.90
19330;DHT22;9799;48.214;16.388;2023-08-31T09:33:37;22.50;99.90
19330;DHT22;9799;48.214;16.388;2023-08-31T09:37:04;22.10;99.90
19330;DHT22;9799;48.214;16.388;2023-08-31T09:40:26;21.70;99.90
19330;DHT22;9799;48.214;16.388;2023-08-31T09:43:49;21.60;99.90
19330;DHT22;9799;48.214;16.388;2023-08-31T09:47:13;21.70;99.90
19330;DHT22;9799;48.214;16.388;2023-08-31T09:50:37;21.80;99.90
19330;DHT22;9799;48.214;16.388;2023-08-31T09:54:00;21.80;99.90
19330;DHT22;9799;48.214;16.388;2023-08-31T09:57:23;21.80;99.90
19330;DHT22;9799;48.214;16.388;2023-08-31T10:00:46;21.70;99.90
19330;DHT22;9799;48.214;16.388;2023-08-31T10:04:11;21.80;99.90
19330;DHT22;9799;48.214;16.388;2023-08-31T10:07:34;21.70;99.90
19330;DHT22;9799;48.214;16.388;2023-08-31T10:10:57;21.60;99.90
19330;DHT22;9799;48.214;16.388;2023-08-31T10:14:19;21.50;99.90
19330;DHT22;9799;48.214;16.388;2023-08-31T10:17:42;21.50;99.90
19330;DHT22;9799;48.214;16.388;2023-08-31T10:21:03;21.50;99.90
19330;DHT22;9799;48.214;16.388;2023-08-31T10:25:00;21.50;99.90
19330;DHT22;9799;48.214;16.388;2023-08-31T10:28:24;21.40;99.90
19330;DHT22;9799;48.214;16.388;2023-08-31T10:31:47;21.50;99.90
19330;DHT22;9799;48.214;16.388;2023-08-31T10:35:10;21.60;99.90
19330;DHT22;9799;48.214;16.388;2023-08-31T10:38:32;21.80;99.90
19330;DHT22;9799;48.214;16.388;2023-08-31T10:41:56;22.20;99.90
19330;DHT22;9799;48.214;16.388;2023-08-31T10:45:20;22.20;99.90
19330;DHT22;9799;48.214;16.388;2023-08-31T10:48:50;22.20;99.90
19330;DHT22;9799;48.214;16.388;2023-08-31T10:52:16;22.30;99.90
19330;DHT22;9799;48.214;16.388;2023-08-31T10:55:50;22.20;99.90
19330;DHT22;9799;48.214;16.388;2023-08-31T10:59:14;22.30;99.30
19330;DHT22;9799;48.214;16.388;2023-08-31T11:02:36;22.50;98.80
19330;DHT22;9799;48.214;16.388;2023-08-31T11:05:58;22.80;98.10
19330;DHT22;9799;48.214;16.388;2023-08-31T11:09:20;23.10;97.00
19330;DHT22;9799;48.214;16.388;2023-08-31T11:12:43;23.30;95.90
19330;DHT22;9799;48.214;16.388;2023-08-31T11:16:05;23.20;95.30
19330;DHT22;9799;48.214;16.388;2023-08-31T11:19:28;23.30;94.90
19330;DHT22;9799;48.214;16.388;2023-08-31T11:22:50;23.30;94.70
19330;DHT22;9799;48.214;16.388;2023-08-31T11:26:13;23.00;94.70
19330;DHT22;9799;48.214;16.388;2023-08-31T11:29:37;23.10;94.80
19330;DHT22;9799;48.214;16.388;2023-08-31T11:33:03;23.40;94.30
19330;DHT22;9799;48.214;16.388;2023-08-31T11:36:25;23.00;93.40
19330;DHT22;9799;48.214;16.388;2023-08-31T11:39:49;23.10;93.50
19330;DHT22;9799;48.214;16.388;2023-08-31T11:43:11;23.30;92.50
19330;DHT22;9799;48.214;16.388;2023-08-31T11:46:36;23.50;92.10
19330;DHT22;9799;48.214;16.388;2023-08-31T11:49:59;23.30;91.30
19330;DHT22;9799;48.214;16.388;2023-08-31T11:53:22;23.30;91.60
19330;DHT22;9799;48.214;16.388;2023-08-31T11:56:44;23.20;91.90
19330;DHT22;9799;48.214;16.388;2023-08-31T12:00:07;23.50;92.40
19330;DHT22;9799;48.214;16.388;2023-08-31T12:03:42;23.50;92.50
19330;DHT22;9799;48.214;16.388;2023-08-31T12:07:05;23.80;92.30
19330;DHT22;9799;48.214;16.388;2023-08-31T12:10:27;23.90;91.80
19330;DHT22;9799;48.214;16.388;2023-08-31T12:13:50;23.90;92.00
19330;DHT22;9799;48.214;16.388;2023-08-31T12:17:13;23.80;92.00
19330;DHT22;9799;48.214;16.388;2023-08-31T12:20:44;23.70;91.80
19330;DHT22;9799;48.214;16.388;2023-08-31T12:24:07;23.80;92.00
19330;DHT22;9799;48.214;16.388;2023-08-31T12:27:28;23.80;91.70
19330;DHT22;9799;48.214;16.388;2023-08-31T12:30:52;23.80;91.20
19330;DHT22;9799;48.214;16.388;2023-08-31T12:34:16;23.90;91.60
19330;DHT22;9799;48.214;16.388;2023-08-31T12:37:41;23.90;90.10
19330;DHT22;9799;48.214;16.388;2023-08-31T12:41:03;23.60;89.80
19330;DHT22;9799;48.214;16.388;2023-08-31T12:44:25;23.60;90.20
19330;DHT22;9799;48.214;16.388;2023-08-31T12:47:46;23.40;91.10
19330;DHT22;9799;48.214;16.388;2023-08-31T12:51:10;23.60;89.60
19330;DHT22;9799;48.214;16.388;2023-08-31T12:54:31;23.70;89.30
19330;DHT22;9799;48.214;16.388;2023-08-31T12:57:54;23.90;91.20
19330;DHT22;9799;48.214;16.388;2023-08-31T13:01:15;23.90;90.00
19330;DHT22;9799;48.214;16.388;2023-08-31T13:04:38;23.70;90.20
19330;DHT22;9799;48.214;16.388;2023-08-31T13:08:00;23.80;90.00
19330;DHT22;9799;48.214;16.388;2023-08-31T13:11:21;23.50;90.00
19330;DHT22;9799;48.214;16.388;2023-08-31T13:14:45;23.60;89.50
19330;DHT22;9799;48.214;16.388;2023-08-31T13:18:06;23.70;87.70
19330;DHT22;9799;48.214;16.388;2023-08-31T13:21:28;23.60;89.10
19330;DHT22;9799;48.214;16.388;2023-08-31T13:24:49;23.60;88.90
19330;DHT22;9799;48.214;16.388;2023-08-31T13:28:10;23.50;89.40
19330;DHT22;9799;48.214;16.388;2023-08-31T13:31:33;23.50;89.70
19330;DHT22;9799;48.214;16.388;2023-08-31T13:34:54;23.50;89.80
19330;DHT22;9799;48.214;16.388;2023-08-31T13:38:15;23.50;88.90
19330;DHT22;9799;48.214;16.388;2023-08-31T13:41:37;23.60;89.50
19330;DHT22;9799;48.214;16.388;2023-08-31T13:44:58;23.60;90.40
19330;DHT22;9799;48.214;16.388;2023-08-31T13:48:21;23.70;87.90
19330;DHT22;9799;48.214;16.388;2023-08-31T13:51:42;23.70;87.10
19330;DHT22;9799;48.214;16.388;2023-08-31T13:55:06;23.70;87.00
19330;DHT22;9799;48.214;16.388;2023-08-31T13:58:27;23.60;85.20
19330;DHT22;9799;48.214;16.388;2023-08-31T14:01:48;23.50;85.90
19330;DHT22;9799;48.214;16.388;2023-08-31T14:05:12;23.60;85.80
19330;DHT22;9799;48.214;16.388;2023-08-31T14:08:34;23.50;85.80
19330;DHT22;9799;48.214;16.388;2023-08-31T14:11:56;23.50;85.90
19330;DHT22;9799;48.214;16.388;2023-08-31T14:15:17;23.50;86.40
19330;DHT22;9799;48.214;16.388;2023-08-31T14:18:38;23.60;86.20
19330;DHT22;9799;48.214;16.388;2023-08-31T14:22:01;23.50;85.20
19330;DHT22;9799;48.214;16.388;2023-08-31T14:25:23;23.50;84.80
19330;DHT22;9799;48.214;16.388;2023-08-31T14:28:45;23.40;85.20
19330;DHT22;9799;48.214;16.388;2023-08-31T14:32:06;23.40;83.90
19330;DHT22;9799;48.214;16.388;2023-08-31T14:35:32;23.30;84.70
19330;DHT22;9799;48.214;16.388;2023-08-31T14:38:55;23.30;85.70
19330;DHT22;9799;48.214;16.388;2023-08-31T14:42:17;23.20;86.20
19330;DHT22;9799;48.214;16.388;2023-08-31T14:45:41;23.40;85.00
19330;DHT22;9799;48.214;16.388;2023-08-31T14:49:03;23.50;85.80
19330;DHT22;9799;48.214;16.388;2023-08-31T14:52:25;23.60;85.70
19330;DHT22;9799;48.214;16.388;2023-08-31T14:55:52;23.50;85.80
19330;DHT22;9799;48.214;16.388;2023-08-31T14:59:14;23.40;86.70
19330;DHT22;9799;48.214;16.388;2023-08-31T15:02:36;23.40;85.40
19330;DHT22;9799;48.214;16.388;2023-08-31T15:05:58;23.40;86.00
19330;DHT22;9799;48.214;16.388;2023-08-31T15:09:21;23.30;86.20
19330;DHT22;9799;48.214;16.388;2023-08-31T15:12:44;23.40;86.70
19330;DHT22;9799;48.214;16.388;2023-08-31T15:16:05;23.40;85.90
19330;DHT22;9799;48.214;16.388;2023-08-31T15:19:26;23.40;86.00
19330;DHT22;9799;48.214;16.388;2023-08-31T15:22:49;23.40;85.00
19330;DHT22;9799;48.214;16.388;2023-08-31T15:26:10;23.40;85.70
19330;DHT22;9799;48.214;16.388;2023-08-31T15:29:35;23.20;85.30
19330;DHT22;9799;48.214;16.388;2023-08-31T15:33:01;23.10;87.70
19330;DHT22;9799;48.214;16.388;2023-08-31T15:36:24;23.10;86.20
19330;DHT22;9799;48.214;16.388;2023-08-31T15:39:46;23.10;86.40
19330;DHT22;9799;48.214;16.388;2023-08-31T15:43:08;23.10;86.20
19330;DHT22;9799;48.214;16.388;2023-08-31T15:46:32;23.10;86.60
19330;DHT22;9799;48.214;16.388;2023-08-31T15:49:55;23.10;86.70
19330;DHT22;9799;48.214;16.388;2023-08-31T15:53:17;23.00;87.30
19330;DHT22;9799;48.214;16.388;2023-08-31T15:56:39;23.20;86.40
19330;DHT22;9799;48.214;16.388;2023-08-31T16:00:02;23.00;86.70
19330;DHT22;9799;48.214;16.388;2023-08-31T16:03:27;23.00;87.20
19330;DHT22;9799;48.214;16.388;2023-08-31T16:06:52;23.00;87.10
19330;DHT22;9799;48.214;16.388;2023-08-31T16:10:15;23.00;87.60
19330;DHT22;9799;48.214;16.388;2023-08-31T16:13:37;22.90;87.20
19330;DHT22;9799;48.214;16.388;2023-08-31T16:17:01;22.80;87.40
19330;DHT22;9799;48.214;16.388;2023-08-31T16:20:25;22.70;87.30
19330;DHT22;9799;48.214;16.388;2023-08-31T16:23:47;22.60;87.40
19330;DHT22;9799;48.214;16.388;2023-08-31T16:27:10;22.50;87.10
19330;DHT22;9799;48.214;16.388;2023-08-31T16:30:31;22.40;88.00
19330;DHT22;9799;48.214;16.388;2023-08-31T16:33:54;22.40;90.70
19330;DHT22;9799;48.214;16.388;2023-08-31T16:37:19;22.30;89.10
19330;DHT22;9799;48.214;16.388;2023-08-31T16:40:43;22.30;89.10
19330;DHT22;9799;48.214;16.388;2023-08-31T16:44:06;22.10;89.40
19330;DHT22;9799;48.214;16.388;2023-08-31T16:47:29;22.10;89.70
19330;DHT22;9799;48.214;16.388;2023-08-31T16:50:51;22.10;89.30
19330;DHT22;9799;48.214;16.388;2023-08-31T16:54:15;21.90;89.40
19330;DHT22;9799;48.214;16.388;2023-08-31T16:57:37;21.80;90.00
19330;DHT22;9799;48.214;16.388;2023-08-31T17:00:59;21.80;90.10
19330;DHT22;9799;48.214;16.388;2023-08-31T17:04:21;21.70;90.10
19330;DHT22;9799;48.214;16.388;2023-08-31T17:07:50;21.80;90.40
19330;DHT22;9799;48.214;16.388;2023-08-31T17:11:14;21.80;90.30
19330;DHT22;9799;48.214;16.388;2023-08-31T17:14:37;21.80;90.60
19330;DHT22;9799;48.214;16.388;2023-08-31T17:18:05;21.70;90.60
19330;DHT22;9799;48.214;16.388;2023-08-31T17:21:28;21.60;90.90
19330;DHT22;9799;48.214;16.388;2023-08-31T17:24:54;21.60;91.20
19330;DHT22;9799;48.214;16.388;2023-08-31T17:28:19;21.50;91.50
19330;DHT22;9799;48.214;16.388;2023-08-31T17:31:46;21.50;91.10
19330;DHT22;9799;48.214;16.388;2023-08-31T17:35:09;21.50;91.00
19330;DHT22;9799;48.214;16.388;2023-08-31T17:38:32;21.50;90.90
19330;DHT22;9799;48.214;16.388;2023-08-31T17:41:56;21.40;91.20
19330;DHT22;9799;48.214;16.388;2023-08-31T17:45:22;21.40;91.10
19330;DHT22;9799;48.214;16.388;2023-08-31T17:48:45;21.40;90.90
19330;DHT22;9799;48.214;16.388;2023-08-31T17:52:08;21.30;90.90
19330;DHT22;9799;48.214;16.388;2023-08-31T17:55:33;21.30;91.10
19330;DHT22;9799;48.214;16.388;2023-08-31T17:58:58;21.20;91.20
19330;DHT22;9799;48.214;16.388;2023-08-31T18:02:22;21.30;91.40
19330;DHT22;9799;48.214;16.388;2023-08-31T18:05:49;21.20;91.50
19330;DHT22;9799;48.214;16.388;2023-08-31T18:09:12;21.10;91.50
19330;DHT22;9799;48.214;16.388;2023-08-31T18:12:36;21.10;91.80
19330;DHT22;9799;48.214;16.388;2023-08-31T18:16:00;21.00;92.00
19330;DHT22;9799;48.214;16.388;2023-08-31T18:19:27;21.10;92.00
19330;DHT22;9799;48.214;16.388;2023-08-31T18:22:52;21.00;92.40
19330;DHT22;9799;48.214;16.388;2023-08-31T18:26:16;21.00;92.50
19330;DHT22;9799;48.214;16.388;2023-08-31T18:29:43;21.00;92.40
19330;DHT22;9799;48.214;16.388;2023-08-31T18:33:08;21.00;92.50
19330;DHT22;9799;48.214;16.388;2023-08-31T18:36:35;20.90;92.80
19330;DHT22;9799;48.214;16.388;2023-08-31T18:39:59;20.90;92.80
19330;DHT22;9799;48.214;16.388;2023-08-31T18:43:24;20.90;92.90
19330;DHT22;9799;48.214;16.388;2023-08-31T18:46:45;20.90;93.10
19330;DHT22;9799;48.214;16.388;2023-08-31T18:50:08;20.90;93.30
19330;DHT22;9799;48.214;16.388;2023-08-31T18:53:37;21.00;93.90
19330;DHT22;9799;48.214;16.388;2023-08-31T18:57:00;20.70;94.70
19330;DHT22;9799;48.214;16.388;2023-08-31T19:00:25;20.50;94.60
19330;DHT22;9799;48.214;16.388;2023-08-31T19:03:46;20.40;96.10
19330;DHT22;9799;48.214;16.388;2023-08-31T19:07:09;20.40;95.20
19330;DHT22;9799;48.214;16.388;2023-08-31T19:10:34;20.40;95.70
19330;DHT22;9799;48.214;16.388;2023-08-31T19:13:56;20.50;96.00
19330;DHT22;9799;48.214;16.388;2023-08-31T19:17:23;20.60;95.70
19330;DHT22;9799;48.214;16.388;2023-08-31T19:20:48;20.60;95.60
19330;DHT22;9799;48.214;16.388;2023-08-31T19:24:13;20.50;96.70
19330;DHT22;9799;48.214;16.388;2023-08-31T19:27:39;20.50;96.10
19330;DHT22;9799;48.214;16.388;2023-08-31T19:31:01;20.50;96.30
19330;DHT22;9799;48.214;16.388;2023-08-31T19:34:26;20.40;96.50
19330;DHT22;9799;48.214;16.388;2023-08-31T19:37:53;20.40;96.70
19330;DHT22;9799;48.214;16.388;2023-08-31T19:41:18;20.40;97.00
19330;DHT22;9799;48.214;16.388;2023-08-31T19:44:46;20.40;97.20
19330;DHT22;9799;48.214;16.388;2023-08-31T19:48:10;20.40;97.30
19330;DHT22;9799;48.214;16.388;2023-08-31T19:51:31;20.50;97.80
19330;DHT22;9799;48.214;16.388;2023-08-31T19:54:57;20.50;97.30
19330;DHT22;9799;48.214;16.388;2023-08-31T19:58:18;20.50;97.40
19330;DHT22;9799;48.214;16.388;2023-08-31T20:01:41;20.50;98.20
19330;DHT22;9799;48.214;16.388;2023-08-31T20:05:05;20.40;97.70
19330;DHT22;9799;48.214;16.388;2023-08-31T20:08:30;20.40;97.80
19330;DHT22;9799;48.214;16.388;2023-08-31T20:11:53;20.40;98.30
19330;DHT22;9799;48.214;16.388;2023-08-31T20:15:16;20.40;98.40
19330;DHT22;9799;48.214;16.388;2023-08-31T20:18:44;20.40;98.30
19330;DHT22;9799;48.214;16.388;2023-08-31T20:22:11;20.40;98.90
19330;DHT22;9799;48.214;16.388;2023-08-31T20:25:35;20.30;98.90
19330;DHT22;9799;48.214;16.388;2023-08-31T20:28:59;20.30;99.20
19330;DHT22;9799;48.214;16.388;2023-08-31T20:32:21;20.30;99.40
19330;DHT22;9799;48.214;16.388;2023-08-31T20:35:46;20.40;99.60
19330;DHT22;9799;48.214;16.388;2023-08-31T20:39:09;20.30;99.60
19330;DHT22;9799;48.214;16.388;2023-08-31T20:42:32;20.20;99.70
19330;DHT22;9799;48.214;16.388;2023-08-31T20:49:28;20.20;99.90
19330;DHT22;9799;48.214;16.388;2023-08-31T20:52:51;20.20;99.90
19330;DHT22;9799;48.214;16.388;2023-08-31T20:56:17;20.20;99.90
19330;DHT22;9799;48.214;16.388;2023-08-31T20:59:41;20.10;99.90
19330;DHT22;9799;48.214;16.388;2023-08-31T21:03:04;20.10;99.90
19330;DHT22;9799;48.214;16.388;2023-08-31T21:06:26;20.00;99.90
19330;DHT22;9799;48.214;16.388;2023-08-31T21:09:49;20.10;99.90
19330;DHT22;9799;48.214;16.388;2023-08-31T21:13:10;20.00;99.90
19330;DHT22;9799;48.214;16.388;2023-08-31T21:16:32;19.90;99.90
19330;DHT22;9799;48.214;16.388;2023-08-31T21:19:53;19.70;99.90
19330;DHT22;9799;48.214;16.388;2023-08-31T21:23:14;19.50;99.90